Prompton, Pennsylvania
Current Conditions -  °F | °C
As of 1:54 AM on Sunday 23 Nov 2014 (Local Time) from KAVP Reporting Station
Broken Clouds Broken Clouds  
Wind Chill: 33°   Ceiling: 9000
Heat Index: 40°   Visibility: 10mi
Dew Point: 17°   Wind: 10mph
Humidity: 40%   Direction: 200°SSW
Pressure: 30.13"   Gusts: NA
Location:  41.58°N, 75.33°W
Report Text: KAVP 230654Z AUTO 20009KT 10SM BKN090 BKN110 04/M08 A3013 RMK AO2 SLP209 T00441083
Loading
Personal Weather Stations






























Interactive Weather Map New forecast layout! Learn more

10-Day Weather Forecast

Advertisements
Track Severe Weather on mobile